Terminal Aerodrome Forecast
Issued by NWS Brownsville, TX

Current Version | Previous Version | Text Only | Print | Product List | Glossary On
Versions: 1 2 3 4 5 6 7 8 9 10 11 12 13 14 15 16 17
000
FTUS44 KBRO 272329
TAFMFE
TAF
KMFE 272329Z 2800/2824 12012G20KT P6SM SCT040
     FM280300 13008KT P6SM OVC019
     FM281300 14012KT P6SM SCT030
     FM281500 14018G25KT P6SM BKN050=

USA.gov is the U.S. government's official web portal to all federal, state and local government web resources and services.